createdAt,value
2023-01-18T00:02:10.112Z,16.97
2023-01-18T00:04:37.317Z,19.60
2023-01-18T00:07:04.575Z,20.17
2023-01-18T00:09:31.836Z,21.13
2023-01-18T00:11:58.939Z,14.33
2023-01-18T00:14:26.089Z,20.63
2023-01-18T00:16:53.207Z,17.37
2023-01-18T00:19:20.339Z,21.37
2023-01-18T00:21:47.460Z,25.73
2023-01-18T00:24:15.035Z,26.23
2023-01-18T00:26:43.107Z,19.43
2023-01-18T00:29:10.476Z,18.13
2023-01-18T00:31:37.916Z,19.60
2023-01-18T00:34:05.601Z,15.90
2023-01-18T00:36:33.050Z,20.53
2023-01-18T00:39:00.726Z,26.63
2023-01-18T00:41:28.024Z,14.87
2023-01-18T00:43:55.427Z,15.47
2023-01-18T00:46:23.898Z,21.43
2023-01-18T00:48:51.727Z,12.63
2023-01-18T00:51:20.311Z,17.40
2023-01-18T00:53:47.556Z,15.97
2023-01-18T00:56:16.345Z,14.77
2023-01-18T00:58:43.466Z,16.47
2023-01-18T01:01:10.867Z,17.23
2023-01-18T01:03:57.210Z,18.00
2023-01-18T01:06:45.643Z,15.47
2023-01-18T01:09:14.607Z,19.97
2023-01-18T01:12:01.683Z,16.20
2023-01-18T01:14:47.612Z,14.70
2023-01-18T01:17:33.783Z,14.93
2023-01-18T01:20:20.083Z,18.13
2023-01-18T01:23:05.734Z,20.80
2023-01-18T01:25:51.755Z,19.03
2023-01-18T01:28:18.990Z,21.33
2023-01-18T01:30:46.171Z,14.93
2023-01-18T01:33:13.478Z,20.13
2023-01-18T01:35:40.631Z,16.93
2023-01-18T01:38:10.233Z,19.43
2023-01-18T01:40:37.415Z,17.03
2023-01-18T01:43:04.582Z,21.47
2023-01-18T01:45:32.777Z,19.43
2023-01-18T01:48:00.181Z,15.37
2023-01-18T01:50:29.259Z,16.43
2023-01-18T01:52:57.077Z,17.00
2023-01-18T01:55:31.703Z,15.83
2023-01-18T01:58:21.528Z,17.00
2023-01-18T02:00:48.814Z,18.50
2023-01-18T02:03:20.800Z,18.87
2023-01-18T02:05:49.387Z,19.83
2023-01-18T02:08:22.304Z,18.37
2023-01-18T02:10:50.338Z,18.70
2023-01-18T02:13:18.159Z,18.57
2023-01-18T02:15:50.013Z,17.67
2023-01-18T02:18:30.206Z,15.70
2023-01-18T02:21:17.719Z,22.90
2023-01-18T02:23:50.659Z,19.57
2023-01-18T02:26:32.959Z,17.00
2023-01-18T02:29:06.374Z,23.60
2023-01-18T02:31:42.192Z,21.33
2023-01-18T02:34:22.249Z,17.40
2023-01-18T02:36:58.363Z,15.20
2023-01-18T02:39:38.196Z,21.87
2023-01-18T02:42:44.350Z,21.40
2023-01-18T02:45:39.476Z,16.97
2023-01-18T02:48:10.681Z,18.17
2023-01-18T02:50:37.903Z,19.63
2023-01-18T02:53:05.002Z,14.93
2023-01-18T02:55:50.966Z,21.30
2023-01-18T02:58:25.075Z,21.97
2023-01-18T03:00:55.688Z,20.90
2023-01-18T03:03:23.866Z,18.37
2023-01-18T03:05:52.103Z,21.73
2023-01-18T03:08:22.471Z,21.60
2023-01-18T03:10:56.648Z,23.47
2023-01-18T03:13:31.435Z,21.67
2023-01-18T03:16:04.795Z,22.63
2023-01-18T03:19:03.040Z,22.93
2023-01-18T03:21:42.281Z,17.33
2023-01-18T03:24:11.181Z,19.37
2023-01-18T03:26:41.419Z,17.47
2023-01-18T03:29:31.794Z,19.27
2023-01-18T03:32:17.776Z,19.87
2023-01-18T03:35:00.312Z,21.33
2023-01-18T03:37:27.383Z,28.80
2023-01-18T03:39:57.257Z,16.40
2023-01-18T03:42:26.930Z,18.20
2023-01-18T03:44:54.011Z,18.83
2023-01-18T03:47:21.292Z,16.33
2023-01-18T03:49:48.946Z,20.67
2023-01-18T03:52:21.728Z,16.87
2023-01-18T03:54:57.646Z,18.23
2023-01-18T03:57:30.579Z,21.73
2023-01-18T03:59:58.029Z,18.77
2023-01-18T04:02:27.075Z,23.03
2023-01-18T04:05:02.267Z,22.90
2023-01-18T04:07:29.841Z,21.00
2023-01-18T04:09:56.951Z,14.63
2023-01-18T04:12:24.092Z,19.17
2023-01-18T04:14:51.458Z,21.60
2023-01-18T04:17:19.034Z,20.07
2023-01-18T04:19:46.213Z,24.50
2023-01-18T04:22:13.962Z,18.87
2023-01-18T04:24:41.107Z,21.43
2023-01-18T04:27:08.448Z,15.97
2023-01-18T04:29:35.540Z,18.10
2023-01-18T04:32:02.867Z,21.07
2023-01-18T04:34:30.075Z,20.93
2023-01-18T04:36:57.363Z,23.80
2023-01-18T04:39:24.548Z,32.93
2023-01-18T04:41:51.648Z,24.50
2023-01-18T04:44:18.833Z,21.50
2023-01-18T04:46:47.618Z,23.83
2023-01-18T04:49:17.408Z,22.20
2023-01-18T04:51:45.097Z,20.67
2023-01-18T04:54:12.775Z,23.77
2023-01-18T04:56:39.953Z,20.00
2023-01-18T04:59:07.354Z,22.27
2023-01-18T05:01:35.753Z,25.60
2023-01-18T05:04:03.577Z,19.10
2023-01-18T05:06:30.670Z,15.67
2023-01-18T05:08:57.825Z,20.70
2023-01-18T05:11:25.036Z,25.67
2023-01-18T05:13:52.194Z,21.27
2023-01-18T05:16:20.698Z,20.30
2023-01-18T05:18:48.041Z,17.30
2023-01-18T05:21:15.465Z,17.10
2023-01-18T05:23:42.667Z,21.30
2023-01-18T05:26:14.847Z,20.43
2023-01-18T05:28:43.137Z,21.27
2023-01-18T05:31:10.534Z,21.83
2023-01-18T05:33:37.748Z,22.43
2023-01-18T05:36:05.202Z,23.33
2023-01-18T05:38:32.367Z,20.57
2023-01-18T05:40:59.643Z,20.10
2023-01-18T05:43:27.698Z,19.77
2023-01-18T05:45:54.870Z,16.37
2023-01-18T05:48:22.378Z,32.33
2023-01-18T05:50:49.804Z,19.63
2023-01-18T05:53:18.734Z,21.67
2023-01-18T05:55:54.142Z,18.97
2023-01-18T05:58:21.391Z,26.57
2023-01-18T06:00:48.526Z,23.07
2023-01-18T06:03:15.760Z,22.63
2023-01-18T06:05:42.899Z,23.90
2023-01-18T06:08:10.049Z,18.73
2023-01-18T06:10:37.220Z,23.27
2023-01-18T06:13:05.225Z,18.90
2023-01-18T06:15:32.363Z,23.13
2023-01-18T06:18:00.015Z,20.83
2023-01-18T06:20:30.380Z,24.10
2023-01-18T06:22:58.781Z,22.50
2023-01-18T06:25:26.252Z,23.67
2023-01-18T06:27:53.439Z,23.07
2023-01-18T06:30:20.777Z,23.57
2023-01-18T06:32:50.638Z,23.20
2023-01-18T06:35:17.784Z,21.87
2023-01-18T06:37:47.803Z,24.30
2023-01-18T06:40:15.172Z,25.27
2023-01-18T06:42:42.621Z,20.27
2023-01-18T06:45:10.035Z,27.97
2023-01-18T06:47:37.129Z,20.30
2023-01-18T06:50:04.365Z,25.50
2023-01-18T06:52:33.516Z,24.13
2023-01-18T06:55:00.696Z,23.07
2023-01-18T06:57:27.829Z,26.43
2023-01-18T06:59:54.999Z,29.50
2023-01-18T07:02:22.181Z,21.93
2023-01-18T07:04:49.337Z,23.03
2023-01-18T07:07:16.510Z,27.57
2023-01-18T07:09:43.779Z,25.47
2023-01-18T07:12:10.864Z,24.80
2023-01-18T07:14:37.998Z,31.53
2023-01-18T07:17:05.173Z,33.77
2023-01-18T07:19:32.318Z,22.97
2023-01-18T07:22:00.598Z,21.37
2023-01-18T07:24:28.052Z,23.80
2023-01-18T07:26:55.595Z,25.73
2023-01-18T07:29:23.029Z,23.07
2023-01-18T07:31:50.206Z,22.87
2023-01-18T07:34:17.341Z,25.00
2023-01-18T07:36:44.964Z,26.73
2023-01-18T07:39:12.236Z,30.77
2023-01-18T07:41:39.455Z,25.43
2023-01-18T07:44:10.102Z,19.97
2023-01-18T07:46:37.303Z,23.73
2023-01-18T07:49:05.875Z,24.90
2023-01-18T07:51:34.956Z,26.70
2023-01-18T07:54:02.072Z,25.00
2023-01-18T07:56:29.219Z,25.10
2023-01-18T07:58:56.463Z,27.57
2023-01-18T08:01:24.266Z,19.43
2023-01-18T08:03:51.599Z,24.10
2023-01-18T08:06:24.972Z,23.77
2023-01-18T08:08:52.557Z,26.53
2023-01-18T08:11:20.387Z,28.60
2023-01-18T08:13:49.267Z,28.40
2023-01-18T08:16:17.733Z,27.93
2023-01-18T08:18:45.557Z,36.10
2023-01-18T08:21:13.504Z,32.47
2023-01-18T08:23:41.128Z,29.50
2023-01-18T08:26:09.049Z,25.07
2023-01-18T08:28:36.718Z,32.60
2023-01-18T08:31:08.996Z,23.23
2023-01-18T08:33:40.349Z,29.37
2023-01-18T08:36:10.596Z,31.20
2023-01-18T08:38:37.745Z,30.93
2023-01-18T08:41:04.886Z,30.47
2023-01-18T08:43:32.282Z,26.77
2023-01-18T08:45:59.369Z,28.40
2023-01-18T08:48:26.528Z,31.63
2023-01-18T08:50:53.695Z,27.67
2023-01-18T08:53:20.926Z,31.60
2023-01-18T08:55:48.064Z,33.17
2023-01-18T08:58:15.187Z,33.17
2023-01-18T09:00:50.631Z,26.10
2023-01-18T09:03:22.166Z,31.13
2023-01-18T09:05:49.936Z,32.57
2023-01-18T09:08:17.577Z,26.83
2023-01-18T09:10:45.084Z,33.87
2023-01-18T09:13:12.216Z,29.37
2023-01-18T09:15:39.435Z,35.50
2023-01-18T09:18:08.123Z,33.07
2023-01-18T09:20:36.211Z,28.93
2023-01-18T09:23:07.423Z,32.63
2023-01-18T09:25:36.318Z,36.57
2023-01-18T09:28:04.226Z,29.53
2023-01-18T09:30:31.488Z,31.03
2023-01-18T09:32:59.153Z,30.23
2023-01-18T09:35:26.465Z,34.73
2023-01-18T09:37:54.462Z,31.97
2023-01-18T09:40:23.395Z,40.00
2023-01-18T09:42:52.635Z,30.03
2023-01-18T09:45:29.625Z,31.73
2023-01-18T09:48:05.724Z,27.50
2023-01-18T09:50:35.316Z,32.53
2023-01-18T09:53:16.322Z,31.83
2023-01-18T09:55:49.563Z,32.70
2023-01-18T09:58:28.874Z,29.23
2023-01-18T10:00:58.483Z,34.80
2023-01-18T10:03:45.893Z,36.43
2023-01-18T10:06:16.368Z,33.47
2023-01-18T10:08:43.467Z,34.47
2023-01-18T10:11:20.199Z,31.17
2023-01-18T10:13:51.980Z,38.77
2023-01-18T10:16:20.391Z,31.47
2023-01-18T10:18:53.531Z,37.17
2023-01-18T10:21:27.389Z,26.77
2023-01-18T10:24:13.712Z,30.77
2023-01-18T10:26:42.259Z,29.60
2023-01-18T10:29:15.780Z,29.37
2023-01-18T10:31:48.764Z,39.77
2023-01-18T10:34:20.901Z,33.10
2023-01-18T10:36:53.507Z,30.13
2023-01-18T10:39:32.504Z,29.50
2023-01-18T10:42:01.122Z,32.33
2023-01-18T10:44:28.991Z,29.13
2023-01-18T10:47:00.166Z,27.80
2023-01-18T10:49:37.957Z,30.93
2023-01-18T10:52:18.075Z,35.97
2023-01-18T10:54:52.490Z,29.73
2023-01-18T10:57:22.238Z,32.30
2023-01-18T10:59:51.467Z,37.20
2023-01-18T11:02:38.237Z,30.67
2023-01-18T11:05:25.899Z,28.00
2023-01-18T11:08:21.222Z,26.13
2023-01-18T11:10:58.159Z,32.60
2023-01-18T11:13:42.274Z,26.00
2023-01-18T11:16:09.940Z,27.07
2023-01-18T11:18:37.605Z,30.03
2023-01-18T11:21:09.815Z,21.87
2023-01-18T11:23:37.288Z,23.80
2023-01-18T11:26:14.086Z,25.10
2023-01-18T11:28:44.379Z,19.73
2023-01-18T11:31:15.740Z,23.30
2023-01-18T11:33:50.543Z,20.77
2023-01-18T11:36:19.406Z,23.63
2023-01-18T11:38:46.791Z,18.93
2023-01-18T11:41:20.931Z,23.67
2023-01-18T11:43:51.221Z,21.53
2023-01-18T11:46:37.245Z,24.90
2023-01-18T11:49:07.346Z,20.07
2023-01-18T11:51:43.600Z,23.43
2023-01-18T11:54:11.981Z,17.07
2023-01-18T11:56:41.991Z,19.07
2023-01-18T11:59:16.447Z,23.73
2023-01-18T12:01:52.084Z,23.60
2023-01-18T12:04:51.096Z,19.63
2023-01-18T12:07:37.158Z,18.97
2023-01-18T12:10:07.391Z,21.70
2023-01-18T12:12:52.657Z,21.40
2023-01-18T12:15:30.131Z,19.80
2023-01-18T12:18:13.358Z,20.67
2023-01-18T12:20:48.321Z,20.50
2023-01-18T12:23:26.761Z,19.80
2023-01-18T12:26:06.870Z,19.80
2023-01-18T12:28:41.415Z,18.00
2023-01-18T12:31:35.604Z,17.33
2023-01-18T12:34:10.399Z,23.37
2023-01-18T12:36:45.296Z,21.27
2023-01-18T12:39:30.192Z,17.63
2023-01-18T12:42:05.663Z,14.40
2023-01-18T12:44:32.720Z,19.70
2023-01-18T12:46:59.805Z,20.23
2023-01-18T12:49:29.307Z,19.77
2023-01-18T12:52:12.916Z,21.57
2023-01-18T12:54:46.616Z,16.27
2023-01-18T12:57:14.802Z,17.10
2023-01-18T12:59:45.984Z,14.80
2023-01-18T13:02:22.375Z,15.77
2023-01-18T13:04:57.371Z,21.97
2023-01-18T13:07:31.438Z,15.43
2023-01-18T13:09:58.579Z,13.30
2023-01-18T13:12:26.419Z,13.33
2023-01-18T13:15:00.784Z,17.87
2023-01-18T13:17:40.321Z,13.70
2023-01-18T13:20:12.808Z,13.03
2023-01-18T13:23:03.255Z,12.50
2023-01-18T13:25:36.345Z,11.37
2023-01-18T13:28:05.607Z,11.33
2023-01-18T13:30:35.032Z,15.20
2023-01-18T13:33:12.454Z,11.93
2023-01-18T13:35:49.808Z,14.90
2023-01-18T13:38:27.497Z,10.30
2023-01-18T13:41:01.278Z,15.30
2023-01-18T13:43:37.441Z,10.33
2023-01-18T13:46:04.583Z,11.37
2023-01-18T13:48:50.933Z,13.63
2023-01-18T13:51:30.140Z,8.13
2023-01-18T13:53:57.254Z,13.47
2023-01-18T13:56:26.451Z,9.37
2023-01-18T13:59:14.323Z,13.00
2023-01-18T14:01:45.429Z,16.73
2023-01-18T14:04:24.690Z,14.00
2023-01-18T14:06:52.321Z,16.47
2023-01-18T14:09:20.836Z,15.03
2023-01-18T14:11:53.309Z,14.40
2023-01-18T14:14:20.403Z,9.37
2023-01-18T14:17:06.215Z,10.67
2023-01-18T14:19:59.719Z,13.40
2023-01-18T14:22:52.978Z,10.43
2023-01-18T14:25:46.193Z,8.67
2023-01-18T14:28:19.311Z,8.90
2023-01-18T14:30:47.139Z,6.43
2023-01-18T14:33:16.217Z,10.00
2023-01-18T14:35:53.452Z,7.03
2023-01-18T14:38:21.062Z,10.47
2023-01-18T14:40:50.324Z,10.20
2023-01-18T14:43:28.507Z,11.83
2023-01-18T14:46:01.063Z,10.70
2023-01-18T14:48:30.802Z,6.43
2023-01-18T14:50:59.584Z,11.53
2023-01-18T14:53:30.066Z,11.00
2023-01-18T14:56:06.049Z,7.63
2023-01-18T14:58:40.000Z,8.20
2023-01-18T15:01:09.192Z,9.83
2023-01-18T15:03:36.404Z,7.07
2023-01-18T15:06:18.220Z,8.67
2023-01-18T15:08:47.001Z,11.97
2023-01-18T15:11:14.196Z,9.87
2023-01-18T15:13:49.143Z,12.03
2023-01-18T15:16:20.170Z,9.03
2023-01-18T15:18:52.136Z,12.07
2023-01-18T15:21:27.428Z,14.67
2023-01-18T15:24:04.713Z,9.10
2023-01-18T15:26:40.682Z,10.00
2023-01-18T15:29:18.602Z,11.30
2023-01-18T15:31:57.908Z,10.07
2023-01-18T15:34:35.399Z,13.97
2023-01-18T15:37:05.458Z,13.43
2023-01-18T15:39:33.037Z,9.63
2023-01-18T15:42:06.488Z,10.47
2023-01-18T15:44:42.345Z,14.43
2023-01-18T15:47:28.890Z,10.03
2023-01-18T15:50:01.151Z,11.80
2023-01-18T15:52:46.648Z,11.57
2023-01-18T15:55:27.783Z,12.73
2023-01-18T15:57:58.781Z,9.43
2023-01-18T16:00:52.536Z,13.53
2023-01-18T16:03:21.333Z,12.60
2023-01-18T16:06:03.031Z,12.33
2023-01-18T16:08:31.320Z,13.77
2023-01-18T16:10:58.532Z,11.33
2023-01-18T16:13:32.962Z,19.93
2023-01-18T16:16:18.206Z,16.35
2023-01-18T16:19:06.321Z,15.70
2023-01-18T16:21:41.839Z,11.60
2023-01-18T16:24:16.234Z,10.50
2023-01-18T16:26:44.253Z,10.60
2023-01-18T16:29:11.993Z,10.47
2023-01-18T16:31:41.161Z,14.40
2023-01-18T16:34:27.040Z,11.50
2023-01-18T16:36:54.823Z,11.73
2023-01-18T16:39:24.381Z,12.63
2023-01-18T16:41:53.225Z,9.33
2023-01-18T16:44:21.316Z,12.10
2023-01-18T16:46:49.197Z,20.47
2023-01-18T16:49:16.655Z,9.37
2023-01-18T16:51:43.818Z,17.40
2023-01-18T16:54:11.017Z,20.00
2023-01-18T16:56:39.793Z,13.23
2023-01-18T16:59:15.420Z,12.70
2023-01-18T17:01:42.647Z,17.20
2023-01-18T17:04:11.602Z,9.77
2023-01-18T17:06:39.211Z,9.30
2023-01-18T17:09:26.138Z,14.23
2023-01-18T17:11:53.532Z,13.27
2023-01-18T17:14:21.336Z,7.97
2023-01-18T17:16:49.177Z,9.73
2023-01-18T17:19:17.422Z,13.40
2023-01-18T17:21:46.921Z,12.17
2023-01-18T17:24:14.712Z,10.10
2023-01-18T17:26:42.689Z,9.93
2023-01-18T17:29:10.391Z,8.43
2023-01-18T17:31:48.069Z,11.13
2023-01-18T17:34:26.478Z,12.53
2023-01-18T17:36:55.799Z,13.03
2023-01-18T17:39:24.973Z,11.20
2023-01-18T17:41:59.160Z,13.43
2023-01-18T17:44:36.876Z,9.43
2023-01-18T17:47:04.435Z,14.83
2023-01-18T17:49:32.193Z,8.50
2023-01-18T17:51:59.291Z,9.30
2023-01-18T17:54:26.435Z,12.80
2023-01-18T17:56:53.550Z,11.30
2023-01-18T17:59:20.822Z,10.33
2023-01-18T18:01:48.007Z,9.23
2023-01-18T18:04:15.311Z,8.33
2023-01-18T18:06:49.753Z,18.97
2023-01-18T18:09:21.219Z,11.03
2023-01-18T18:11:48.370Z,9.97
2023-01-18T18:14:16.987Z,8.87
2023-01-18T18:16:44.775Z,14.53
2023-01-18T18:19:15.272Z,17.10
2023-01-18T18:21:42.940Z,12.73
2023-01-18T18:24:10.135Z,8.20
2023-01-18T18:26:37.297Z,14.93
2023-01-18T18:29:04.423Z,11.87
2023-01-18T18:31:31.632Z,13.90
2023-01-18T18:33:58.830Z,12.37
2023-01-18T18:36:27.403Z,8.03
2023-01-18T18:38:54.788Z,15.03
2023-01-18T18:41:21.933Z,7.77
2023-01-18T18:43:49.063Z,12.20
2023-01-18T18:46:16.282Z,9.30
2023-01-18T18:48:43.686Z,9.07
2023-01-18T18:51:11.165Z,13.17
2023-01-18T18:53:39.480Z,8.20
2023-01-18T18:56:12.006Z,12.73
2023-01-18T18:58:39.986Z,11.73
2023-01-18T19:01:07.818Z,11.53
2023-01-18T19:03:36.091Z,13.40
2023-01-18T19:06:03.197Z,12.90
2023-01-18T19:08:31.045Z,12.17
2023-01-18T19:10:58.331Z,14.17
2023-01-18T19:13:25.455Z,16.27
2023-01-18T19:15:52.875Z,13.60
2023-01-18T19:18:20.139Z,12.10
2023-01-18T19:20:47.239Z,11.33
2023-01-18T19:23:14.373Z,13.50
2023-01-18T19:25:41.579Z,10.77
2023-01-18T19:28:08.743Z,15.27
2023-01-18T19:30:38.371Z,11.90
2023-01-18T19:33:05.860Z,14.03
2023-01-18T19:35:39.767Z,10.90
2023-01-18T19:38:07.905Z,12.70
2023-01-18T19:40:35.286Z,22.67
2023-01-18T19:43:02.808Z,12.40
2023-01-18T19:45:30.997Z,14.03
2023-01-18T19:47:59.619Z,14.33
2023-01-18T19:50:28.197Z,18.87
2023-01-18T19:52:55.430Z,13.90
2023-01-18T19:55:22.894Z,14.63
2023-01-18T19:57:52.150Z,17.93
2023-01-18T20:00:19.547Z,12.10
2023-01-18T20:02:46.777Z,14.10
2023-01-18T20:05:14.078Z,15.10
2023-01-18T20:07:41.270Z,10.87
2023-01-18T20:10:08.561Z,11.97
2023-01-18T20:12:35.752Z,12.60
2023-01-18T20:15:03.344Z,13.00
2023-01-18T20:17:30.462Z,13.43
2023-01-18T20:19:57.631Z,13.50
2023-01-18T20:22:25.023Z,13.20
2023-01-18T20:24:52.224Z,14.27
2023-01-18T20:27:22.178Z,15.43
2023-01-18T20:29:49.528Z,12.30
2023-01-18T20:32:17.920Z,13.90
2023-01-18T20:34:51.419Z,9.47
2023-01-18T20:37:18.663Z,12.43
2023-01-18T20:39:45.839Z,15.20
2023-01-18T20:42:13.018Z,12.13
2023-01-18T20:44:43.259Z,13.27
2023-01-18T20:47:10.798Z,17.37
2023-01-18T20:49:40.211Z,11.13
2023-01-18T20:52:07.822Z,12.10
2023-01-18T20:54:38.128Z,15.27
2023-01-18T20:57:05.902Z,12.13
2023-01-18T20:59:33.269Z,16.13
2023-01-18T21:02:00.658Z,10.73
2023-01-18T21:04:27.935Z,10.47
2023-01-18T21:06:57.177Z,12.20
2023-01-18T21:09:25.023Z,14.13
2023-01-18T21:11:52.172Z,16.03
2023-01-18T21:14:19.315Z,11.87
2023-01-18T21:16:46.948Z,14.57
2023-01-18T21:19:14.411Z,11.63
2023-01-18T21:21:41.554Z,9.97
2023-01-18T21:24:08.775Z,20.00
2023-01-18T21:26:37.702Z,15.00
2023-01-18T21:29:05.868Z,12.20
2023-01-18T21:31:33.082Z,13.03
2023-01-18T21:34:00.374Z,15.00
2023-01-18T21:36:30.359Z,11.63
2023-01-18T21:38:57.578Z,13.77
2023-01-18T21:41:43.298Z,15.77
2023-01-18T21:44:30.969Z,11.03
2023-01-18T21:46:58.967Z,13.30
2023-01-18T21:50:15.458Z,12.90
2023-01-18T21:52:51.021Z,13.63
2023-01-18T21:55:18.434Z,13.23
2023-01-18T21:57:45.572Z,11.73
2023-01-18T22:00:13.047Z,16.20
2023-01-18T22:02:42.407Z,14.83
2023-01-18T22:05:09.856Z,13.10
2023-01-18T22:07:36.974Z,10.60
2023-01-18T22:10:06.634Z,12.70
2023-01-18T22:12:35.818Z,13.10
2023-01-18T22:15:04.462Z,17.17
2023-01-18T22:17:31.808Z,17.70
2023-01-18T22:19:59.758Z,13.10
2023-01-18T22:22:26.895Z,15.00
2023-01-18T22:24:54.204Z,16.00
2023-01-18T22:27:21.379Z,12.47
2023-01-18T22:29:48.941Z,16.80
2023-01-18T22:32:16.536Z,15.60
2023-01-18T22:34:43.717Z,15.83
2023-01-18T22:37:11.079Z,14.60
2023-01-18T22:39:38.262Z,14.40
2023-01-18T22:42:05.475Z,15.53
2023-01-18T22:44:32.866Z,18.70
2023-01-18T22:47:00.215Z,15.60
2023-01-18T22:49:27.494Z,19.70
2023-01-18T22:51:54.717Z,18.93
2023-01-18T22:54:22.939Z,15.37
2023-01-18T22:56:50.115Z,13.67
2023-01-18T22:59:17.532Z,17.77
2023-01-18T23:01:45.091Z,19.00
2023-01-18T23:04:12.290Z,19.93
2023-01-18T23:06:45.753Z,17.13
2023-01-18T23:09:14.341Z,20.63
2023-01-18T23:11:41.539Z,17.63
2023-01-18T23:14:27.450Z,18.73
2023-01-18T23:17:13.471Z,15.73
2023-01-18T23:19:40.534Z,19.37
2023-01-18T23:22:07.747Z,19.53
2023-01-18T23:24:35.769Z,17.77
2023-01-18T23:27:03.462Z,19.00
2023-01-18T23:29:30.677Z,17.20
2023-01-18T23:31:58.424Z,21.73
2023-01-18T23:34:26.027Z,18.13
2023-01-18T23:36:53.390Z,18.50
2023-01-18T23:39:39.505Z,16.93
2023-01-18T23:42:25.720Z,16.37
2023-01-18T23:45:11.814Z,16.40
2023-01-18T23:47:58.710Z,15.10
2023-01-18T23:50:44.560Z,15.40
2023-01-18T23:53:31.075Z,19.00
2023-01-18T23:55:58.455Z,20.80
2023-01-18T23:58:25.707Z,22.07
